sensor_id;sensor_type;location;lat;lon;timestamp;pressure;altitude;pressure_sealevel;temperature;humidity
50105;BME280;47690;39.202;-77.198;2023-04-22T00:00:16;99579.56;;;54.07;4.66
50105;BME280;47690;39.202;-77.198;2023-04-22T00:02:46;99589.22;;;53.45;4.96
50105;BME280;47690;39.202;-77.198;2023-04-22T00:05:20;99579.13;;;53.66;4.31
50105;BME280;47690;39.202;-77.198;2023-04-22T00:07:51;99579.72;;;53.42;4.53
50105;BME280;47690;39.202;-77.198;2023-04-22T00:10:20;99579.00;;;52.97;4.84
50105;BME280;47690;39.202;-77.198;2023-04-22T00:12:50;99585.63;;;52.43;5.01
50105;BME280;47690;39.202;-77.198;2023-04-22T00:15:20;99591.25;;;53.09;5.03
50105;BME280;47690;39.202;-77.198;2023-04-22T00:17:49;99590.94;;;52.40;4.62
50105;BME280;47690;39.202;-77.198;2023-04-22T00:20:31;99586.22;;;52.23;5.00
50105;BME280;47690;39.202;-77.198;2023-04-22T00:23:03;99588.81;;;52.19;5.56
50105;BME280;47690;39.202;-77.198;2023-04-22T00:25:51;99588.06;;;52.71;4.46
50105;BME280;47690;39.202;-77.198;2023-04-22T00:28:49;99595.97;;;53.08;4.55
50105;BME280;47690;39.202;-77.198;2023-04-22T00:31:32;99586.59;;;52.74;4.79
50105;BME280;47690;39.202;-77.198;2023-04-22T00:34:05;99591.94;;;52.44;5.17
50105;BME280;47690;39.202;-77.198;2023-04-22T00:36:41;99596.09;;;52.32;5.41
50105;BME280;47690;39.202;-77.198;2023-04-22T00:39:23;99593.25;;;52.47;4.95
50105;BME280;47690;39.202;-77.198;2023-04-22T00:42:36;99594.38;;;52.45;4.83
50105;BME280;47690;39.202;-77.198;2023-04-22T00:45:09;99594.34;;;52.37;5.09
50105;BME280;47690;39.202;-77.198;2023-04-22T00:47:47;99601.59;;;52.24;4.90
50105;BME280;47690;39.202;-77.198;2023-04-22T00:50:16;99604.06;;;54.00;4.62
50105;BME280;47690;39.202;-77.198;2023-04-22T00:52:56;99605.72;;;52.79;4.77
50105;BME280;47690;39.202;-77.198;2023-04-22T00:55:58;99608.09;;;52.54;5.26
50105;BME280;47690;39.202;-77.198;2023-04-22T00:58:38;99611.13;;;52.35;5.29
50105;BME280;47690;39.202;-77.198;2023-04-22T01:01:18;99608.19;;;52.23;5.44
50105;BME280;47690;39.202;-77.198;2023-04-22T01:03:48;99612.06;;;53.45;4.65
50105;BME280;47690;39.202;-77.198;2023-04-22T01:06:19;99611.84;;;53.11;5.21
50105;BME280;47690;39.202;-77.198;2023-04-22T01:08:52;99610.53;;;53.18;4.92
50105;BME280;47690;39.202;-77.198;2023-04-22T01:11:21;99607.31;;;53.16;4.75
50105;BME280;47690;39.202;-77.198;2023-04-22T01:13:52;99606.50;;;52.89;5.49
50105;BME280;47690;39.202;-77.198;2023-04-22T01:16:21;99605.53;;;52.67;4.82
50105;BME280;47690;39.202;-77.198;2023-04-22T01:18:51;99600.31;;;52.39;5.28
50105;BME280;47690;39.202;-77.198;2023-04-22T01:21:25;99611.13;;;52.17;5.61
50105;BME280;47690;39.202;-77.198;2023-04-22T01:23:55;99605.94;;;52.16;5.59
50105;BME280;47690;39.202;-77.198;2023-04-22T01:26:25;99611.78;;;52.23;5.30
50105;BME280;47690;39.202;-77.198;2023-04-22T01:28:54;99616.06;;;52.07;5.63
50105;BME280;47690;39.202;-77.198;2023-04-22T01:31:23;99616.22;;;51.61;5.72
50105;BME280;47690;39.202;-77.198;2023-04-22T01:33:53;99617.00;;;51.61;5.77
50105;BME280;47690;39.202;-77.198;2023-04-22T01:36:24;99616.13;;;51.43;5.43
50105;BME280;47690;39.202;-77.198;2023-04-22T01:38:55;99606.69;;;51.35;5.57
50105;BME280;47690;39.202;-77.198;2023-04-22T01:41:27;99606.53;;;51.32;5.95
50105;BME280;47690;39.202;-77.198;2023-04-22T01:44:02;99611.50;;;51.30;5.67
50105;BME280;47690;39.202;-77.198;2023-04-22T01:46:34;99602.97;;;51.31;6.06
50105;BME280;47690;39.202;-77.198;2023-04-22T01:49:04;99610.00;;;51.23;5.75
50105;BME280;47690;39.202;-77.198;2023-04-22T01:51:33;99614.31;;;51.16;5.95
50105;BME280;47690;39.202;-77.198;2023-04-22T01:54:03;99613.94;;;51.08;6.42
50105;BME280;47690;39.202;-77.198;2023-04-22T01:56:34;99609.16;;;51.14;5.63
50105;BME280;47690;39.202;-77.198;2023-04-22T01:59:15;99601.78;;;51.23;6.29
50105;BME280;47690;39.202;-77.198;2023-04-22T02:01:47;99604.22;;;51.25;5.69
50105;BME280;47690;39.202;-77.198;2023-04-22T02:04:18;99603.41;;;53.08;5.02
50105;BME280;47690;39.202;-77.198;2023-04-22T02:06:47;99606.78;;;51.76;5.87
50105;BME280;47690;39.202;-77.198;2023-04-22T02:09:17;99611.50;;;51.30;5.68
50105;BME280;47690;39.202;-77.198;2023-04-22T02:11:47;99607.84;;;51.12;6.27
50105;BME280;47690;39.202;-77.198;2023-04-22T02:14:15;99609.69;;;51.48;5.65
50105;BME280;47690;39.202;-77.198;2023-04-22T02:16:45;99602.34;;;51.12;6.53
50105;BME280;47690;39.202;-77.198;2023-04-22T02:19:16;99605.25;;;51.06;6.07
50105;BME280;47690;39.202;-77.198;2023-04-22T02:21:45;99601.28;;;50.99;5.88
50105;BME280;47690;39.202;-77.198;2023-04-22T02:24:19;99586.44;;;52.97;4.99
50105;BME280;47690;39.202;-77.198;2023-04-22T02:26:49;99595.16;;;51.47;5.87
50105;BME280;47690;39.202;-77.198;2023-04-22T02:29:19;99591.06;;;51.13;5.89
50105;BME280;47690;39.202;-77.198;2023-04-22T02:31:49;99592.31;;;51.07;6.19
50105;BME280;47690;39.202;-77.198;2023-04-22T02:34:18;99593.34;;;50.97;5.91
50105;BME280;47690;39.202;-77.198;2023-04-22T02:36:49;99601.28;;;50.99;5.80
50105;BME280;47690;39.202;-77.198;2023-04-22T02:39:19;99586.22;;;50.87;6.10
50105;BME280;47690;39.202;-77.198;2023-04-22T02:41:49;99590.59;;;50.74;6.58
50105;BME280;47690;39.202;-77.198;2023-04-22T02:44:19;99592.66;;;50.68;6.02
50105;BME280;47690;39.202;-77.198;2023-04-22T02:46:49;99582.72;;;51.18;6.35
50105;BME280;47690;39.202;-77.198;2023-04-22T02:49:18;99583.03;;;51.17;6.03
50105;BME280;47690;39.202;-77.198;2023-04-22T02:51:47;99581.34;;;50.84;5.86
50105;BME280;47690;39.202;-77.198;2023-04-22T02:54:16;99579.97;;;50.95;6.31
50105;BME280;47690;39.202;-77.198;2023-04-22T02:56:45;99578.44;;;51.03;6.51
50105;BME280;47690;39.202;-77.198;2023-04-22T02:59:15;99576.38;;;51.09;6.24
50105;BME280;47690;39.202;-77.198;2023-04-22T03:01:45;99568.50;;;50.70;6.53
50105;BME280;47690;39.202;-77.198;2023-04-22T03:04:27;99575.19;;;50.78;6.50
50105;BME280;47690;39.202;-77.198;2023-04-22T03:06:59;99562.47;;;50.46;6.27
50105;BME280;47690;39.202;-77.198;2023-04-22T03:09:29;99562.91;;;50.39;6.11
50105;BME280;47690;39.202;-77.198;2023-04-22T03:11:58;99566.34;;;50.30;6.66
50105;BME280;47690;39.202;-77.198;2023-04-22T03:14:29;99561.47;;;50.27;6.61
50105;BME280;47690;39.202;-77.198;2023-04-22T03:16:59;99558.97;;;50.68;6.45
50105;BME280;47690;39.202;-77.198;2023-04-22T03:19:31;99554.78;;;50.70;6.00
50105;BME280;47690;39.202;-77.198;2023-04-22T03:21:59;99552.66;;;50.67;5.87
50105;BME280;47690;39.202;-77.198;2023-04-22T03:24:28;99550.81;;;50.77;6.05
50105;BME280;47690;39.202;-77.198;2023-04-22T03:27:05;99545.97;;;50.74;6.48
50105;BME280;47690;39.202;-77.198;2023-04-22T03:29:36;99548.09;;;50.40;6.58
50105;BME280;47690;39.202;-77.198;2023-04-22T03:32:05;99537.34;;;50.43;6.68
50105;BME280;47690;39.202;-77.198;2023-04-22T03:34:35;99535.22;;;50.63;6.94
50105;BME280;47690;39.202;-77.198;2023-04-22T03:37:08;99534.19;;;50.73;5.93
50105;BME280;47690;39.202;-77.198;2023-04-22T03:39:38;99531.81;;;51.03;5.93
50105;BME280;47690;39.202;-77.198;2023-04-22T03:42:12;99524.13;;;50.46;6.10
50105;BME280;47690;39.202;-77.198;2023-04-22T03:44:45;99524.03;;;50.51;6.98
50105;BME280;47690;39.202;-77.198;2023-04-22T03:47:19;99533.22;;;50.55;6.79
50105;BME280;47690;39.202;-77.198;2023-04-22T03:49:53;99522.41;;;51.18;5.73
50105;BME280;47690;39.202;-77.198;2023-04-22T03:52:22;99526.88;;;50.46;6.23
50105;BME280;47690;39.202;-77.198;2023-04-22T03:54:57;99527.56;;;50.51;6.44
50105;BME280;47690;39.202;-77.198;2023-04-22T03:57:27;99522.25;;;50.32;6.66
50105;BME280;47690;39.202;-77.198;2023-04-22T03:59:57;99525.59;;;50.29;6.91
50105;BME280;47690;39.202;-77.198;2023-04-22T04:02:31;99520.59;;;50.31;6.30
50105;BME280;47690;39.202;-77.198;2023-04-22T04:05:01;99522.19;;;50.09;6.30
50105;BME280;47690;39.202;-77.198;2023-04-22T04:07:32;99527.06;;;49.84;6.24
50105;BME280;47690;39.202;-77.198;2023-04-22T04:10:02;99532.34;;;49.81;6.79
50105;BME280;47690;39.202;-77.198;2023-04-22T04:12:33;99518.13;;;49.79;6.83
50105;BME280;47690;39.202;-77.198;2023-04-22T04:15:02;99524.50;;;49.74;6.62
50105;BME280;47690;39.202;-77.198;2023-04-22T04:17:33;99513.69;;;49.69;6.28
50105;BME280;47690;39.202;-77.198;2023-04-22T04:20:05;99525.91;;;49.57;6.68
50105;BME280;47690;39.202;-77.198;2023-04-22T04:22:36;99517.22;;;49.55;6.44
50105;BME280;47690;39.202;-77.198;2023-04-22T04:25:06;99521.44;;;50.32;6.34
50105;BME280;47690;39.202;-77.198;2023-04-22T04:27:42;99514.34;;;50.53;6.08
50105;BME280;47690;39.202;-77.198;2023-04-22T04:30:16;99515.81;;;50.51;6.23
50105;BME280;47690;39.202;-77.198;2023-04-22T04:32:53;99508.06;;;50.53;6.67
50105;BME280;47690;39.202;-77.198;2023-04-22T04:35:24;99517.53;;;50.47;6.20
50105;BME280;47690;39.202;-77.198;2023-04-22T04:37:55;99515.22;;;50.40;5.95
50105;BME280;47690;39.202;-77.198;2023-04-22T04:40:25;99511.88;;;50.29;5.79
50105;BME280;47690;39.202;-77.198;2023-04-22T04:43:17;99508.25;;;50.56;6.67
50105;BME280;47690;39.202;-77.198;2023-04-22T04:45:52;99513.59;;;49.60;7.36
50105;BME280;47690;39.202;-77.198;2023-04-22T04:48:28;99517.19;;;50.25;6.16
50105;BME280;47690;39.202;-77.198;2023-04-22T04:51:04;99510.50;;;49.33;6.66
50105;BME280;47690;39.202;-77.198;2023-04-22T04:53:45;99520.38;;;49.15;6.71
50105;BME280;47690;39.202;-77.198;2023-04-22T04:56:17;99524.38;;;49.04;7.29
50105;BME280;47690;39.202;-77.198;2023-04-22T04:58:47;99517.81;;;49.05;6.94
50105;BME280;47690;39.202;-77.198;2023-04-22T05:01:22;99524.94;;;49.20;7.08
50105;BME280;47690;39.202;-77.198;2023-04-22T05:03:53;99510.75;;;49.18;6.46
50105;BME280;47690;39.202;-77.198;2023-04-22T05:06:24;99508.69;;;49.29;6.70
50105;BME280;47690;39.202;-77.198;2023-04-22T05:09:06;99501.09;;;49.40;7.37
50105;BME280;47690;39.202;-77.198;2023-04-22T05:11:39;99510.50;;;49.33;6.78
50105;BME280;47690;39.202;-77.198;2023-04-22T05:14:20;99505.34;;;49.32;6.65
50105;BME280;47690;39.202;-77.198;2023-04-22T05:16:51;99518.28;;;49.26;6.78
50105;BME280;47690;39.202;-77.198;2023-04-22T05:19:21;99517.94;;;49.89;6.22
50105;BME280;47690;39.202;-77.198;2023-04-22T05:21:54;99510.09;;;49.26;7.37
50105;BME280;47690;39.202;-77.198;2023-04-22T05:24:25;99524.63;;;49.21;6.54
50105;BME280;47690;39.202;-77.198;2023-04-22T05:26:56;99517.22;;;49.22;6.56
50105;BME280;47690;39.202;-77.198;2023-04-22T05:29:27;99520.88;;;49.17;6.81
50105;BME280;47690;39.202;-77.198;2023-04-22T05:31:56;99529.31;;;49.35;6.33
50105;BME280;47690;39.202;-77.198;2023-04-22T05:34:31;99520.09;;;49.17;7.00
50105;BME280;47690;39.202;-77.198;2023-04-22T05:37:05;99516.44;;;49.21;6.60
50105;BME280;47690;39.202;-77.198;2023-04-22T05:39:45;99511.41;;;49.57;6.83
50105;BME280;47690;39.202;-77.198;2023-04-22T05:42:18;99514.06;;;49.48;6.84
50105;BME280;47690;39.202;-77.198;2023-04-22T05:44:49;99514.25;;;49.38;7.01
50105;BME280;47690;39.202;-77.198;2023-04-22T05:47:20;99500.16;;;49.30;6.93
50105;BME280;47690;39.202;-77.198;2023-04-22T05:49:52;99501.09;;;49.06;6.85
50105;BME280;47690;39.202;-77.198;2023-04-22T05:52:36;99493.41;;;49.42;6.78
50105;BME280;47690;39.202;-77.198;2023-04-22T05:55:14;99502.44;;;49.09;6.58
50105;BME280;47690;39.202;-77.198;2023-04-22T05:57:48;99500.53;;;49.10;6.99
50105;BME280;47690;39.202;-77.198;2023-04-22T06:00:37;99495.44;;;49.03;6.87
50105;BME280;47690;39.202;-77.198;2023-04-22T06:03:33;99493.53;;;49.17;6.94
50105;BME280;47690;39.202;-77.198;2023-04-22T06:06:04;99491.00;;;49.07;6.97
50105;BME280;47690;39.202;-77.198;2023-04-22T06:08:34;99487.88;;;49.14;6.85
50105;BME280;47690;39.202;-77.198;2023-04-22T06:11:05;99491.41;;;49.14;6.80
50105;BME280;47690;39.202;-77.198;2023-04-22T06:13:36;99494.44;;;49.13;7.07
50105;BME280;47690;39.202;-77.198;2023-04-22T06:16:06;99494.22;;;49.09;7.17
50105;BME280;47690;39.202;-77.198;2023-04-22T06:18:40;99489.41;;;49.20;6.86
50105;BME280;47690;39.202;-77.198;2023-04-22T06:21:12;99491.91;;;49.02;6.84
50105;BME280;47690;39.202;-77.198;2023-04-22T06:23:45;99494.53;;;48.74;6.76
50105;BME280;47690;39.202;-77.198;2023-04-22T06:26:15;99497.50;;;48.59;6.94
50105;BME280;47690;39.202;-77.198;2023-04-22T06:28:46;99490.53;;;48.66;7.13
50105;BME280;47690;39.202;-77.198;2023-04-22T06:31:19;99491.69;;;48.79;6.72
50105;BME280;47690;39.202;-77.198;2023-04-22T06:33:49;99492.56;;;48.61;6.94
50105;BME280;47690;39.202;-77.198;2023-04-22T06:36:19;99488.28;;;48.54;6.97
50105;BME280;47690;39.202;-77.198;2023-04-22T06:38:53;99490.03;;;48.45;7.37
50105;BME280;47690;39.202;-77.198;2023-04-22T06:41:36;99484.72;;;48.35;7.42
50105;BME280;47690;39.202;-77.198;2023-04-22T06:44:21;99481.41;;;48.57;6.92
50105;BME280;47690;39.202;-77.198;2023-04-22T06:47:29;99485.69;;;48.44;6.98
50105;BME280;47690;39.202;-77.198;2023-04-22T06:50:03;99475.94;;;50.08;6.07
50105;BME280;47690;39.202;-77.198;2023-04-22T06:52:38;99485.22;;;48.75;7.18
50105;BME280;47690;39.202;-77.198;2023-04-22T06:55:08;99488.94;;;48.27;6.98
50105;BME280;47690;39.202;-77.198;2023-04-22T06:57:38;99493.72;;;48.16;6.92
50105;BME280;47690;39.202;-77.198;2023-04-22T07:00:08;99487.97;;;48.18;7.40
50105;BME280;47690;39.202;-77.198;2023-04-22T07:02:39;99489.91;;;47.93;7.14
50105;BME280;47690;39.202;-77.198;2023-04-22T07:05:12;99498.03;;;47.98;6.99
50105;BME280;47690;39.202;-77.198;2023-04-22T07:07:44;99498.72;;;48.09;7.01
50105;BME280;47690;39.202;-77.198;2023-04-22T07:10:21;99495.41;;;48.12;7.37
50105;BME280;47690;39.202;-77.198;2023-04-22T07:13:18;99495.28;;;48.22;6.99
50105;BME280;47690;39.202;-77.198;2023-04-22T07:15:48;99500.09;;;48.06;7.33
50105;BME280;47690;39.202;-77.198;2023-04-22T07:18:18;99505.16;;;47.94;7.30
50105;BME280;47690;39.202;-77.198;2023-04-22T07:20:48;99501.53;;;47.79;7.42
50105;BME280;47690;39.202;-77.198;2023-04-22T07:23:17;99501.69;;;47.64;7.35
50105;BME280;47690;39.202;-77.198;2023-04-22T07:25:47;99501.69;;;47.64;7.49
50105;BME280;47690;39.202;-77.198;2023-04-22T07:28:17;99499.19;;;47.67;7.32
50105;BME280;47690;39.202;-77.198;2023-04-22T07:30:49;99498.63;;;47.70;7.65
50105;BME280;47690;39.202;-77.198;2023-04-22T07:33:25;99500.34;;;47.61;7.28
50105;BME280;47690;39.202;-77.198;2023-04-22T07:35:56;99509.31;;;48.54;6.85
50105;BME280;47690;39.202;-77.198;2023-04-22T07:38:28;99501.84;;;47.78;7.14
50105;BME280;47690;39.202;-77.198;2023-04-22T07:40:59;99496.16;;;47.69;7.58
50105;BME280;47690;39.202;-77.198;2023-04-22T07:43:29;99498.19;;;47.58;7.82
50105;BME280;47690;39.202;-77.198;2023-04-22T07:46:00;99502.22;;;47.66;7.66
50105;BME280;47690;39.202;-77.198;2023-04-22T07:48:30;99496.53;;;47.62;6.99
50105;BME280;47690;39.202;-77.198;2023-04-22T07:51:02;99503.66;;;47.58;7.33
50105;BME280;47690;39.202;-77.198;2023-04-22T07:53:33;99493.41;;;47.74;7.32
50105;BME280;47690;39.202;-77.198;2023-04-22T07:56:04;99500.31;;;48.10;7.26
50105;BME280;47690;39.202;-77.198;2023-04-22T07:58:34;99491.28;;;47.90;7.16
50105;BME280;47690;39.202;-77.198;2023-04-22T08:01:09;99502.38;;;47.99;6.93
50105;BME280;47690;39.202;-77.198;2023-04-22T08:03:40;99499.66;;;47.75;7.23
50105;BME280;47690;39.202;-77.198;2023-04-22T08:06:22;99504.78;;;48.83;6.62
50105;BME280;47690;39.202;-77.198;2023-04-22T08:08:51;99509.44;;;48.63;6.96
50105;BME280;47690;39.202;-77.198;2023-04-22T08:11:21;99514.84;;;48.30;6.67
50105;BME280;47690;39.202;-77.198;2023-04-22T08:13:53;99509.28;;;48.35;7.03
50105;BME280;47690;39.202;-77.198;2023-04-22T08:16:24;99509.00;;;48.36;7.03
50105;BME280;47690;39.202;-77.198;2023-04-22T08:18:55;99517.56;;;48.30;7.27
50105;BME280;47690;39.202;-77.198;2023-04-22T08:21:25;99521.69;;;48.27;7.37
50105;BME280;47690;39.202;-77.198;2023-04-22T08:23:58;99501.28;;;48.00;7.67
50105;BME280;47690;39.202;-77.198;2023-04-22T08:26:28;99504.59;;;47.97;7.02
50105;BME280;47690;39.202;-77.198;2023-04-22T08:29:02;99499.09;;;47.78;7.43
50105;BME280;47690;39.202;-77.198;2023-04-22T08:31:39;99504.00;;;47.22;7.41
50105;BME280;47690;39.202;-77.198;2023-04-22T08:34:11;99499.75;;;47.40;7.44
50105;BME280;47690;39.202;-77.198;2023-04-22T08:36:45;99501.69;;;47.04;7.75
50105;BME280;47690;39.202;-77.198;2023-04-22T08:39:16;99502.00;;;47.03;7.74
50105;BME280;47690;39.202;-77.198;2023-04-22T08:41:48;99505.34;;;46.89;7.82
50105;BME280;47690;39.202;-77.198;2023-04-22T08:44:18;99502.66;;;46.84;7.55
50105;BME280;47690;39.202;-77.198;2023-04-22T08:46:50;99512.00;;;46.73;7.63
50105;BME280;47690;39.202;-77.198;2023-04-22T08:49:22;99499.69;;;46.81;7.57
50105;BME280;47690;39.202;-77.198;2023-04-22T08:51:53;99503.38;;;46.60;7.55
50105;BME280;47690;39.202;-77.198;2023-04-22T08:54:24;99498.47;;;46.62;7.80
50105;BME280;47690;39.202;-77.198;2023-04-22T08:56:55;99499.03;;;46.59;7.69
50105;BME280;47690;39.202;-77.198;2023-04-22T08:59:24;99499.03;;;46.54;7.88
50105;BME280;47690;39.202;-77.198;2023-04-22T09:01:55;99508.06;;;46.49;8.03
50105;BME280;47690;39.202;-77.198;2023-04-22T09:04:26;99499.16;;;46.38;8.29
50105;BME280;47690;39.202;-77.198;2023-04-22T09:06:59;99502.91;;;46.43;8.32
50105;BME280;47690;39.202;-77.198;2023-04-22T09:09:30;99499.69;;;46.35;8.12
50105;BME280;47690;39.202;-77.198;2023-04-22T09:12:00;99496.44;;;46.33;8.16
50105;BME280;47690;39.202;-77.198;2023-04-22T09:14:29;99501.38;;;46.31;7.89
50105;BME280;47690;39.202;-77.198;2023-04-22T09:17:01;99498.63;;;46.36;7.70
50105;BME280;47690;39.202;-77.198;2023-04-22T09:19:36;99496.41;;;46.44;8.10
50105;BME280;47690;39.202;-77.198;2023-04-22T09:22:17;99498.31;;;46.38;8.38
50105;BME280;47690;39.202;-77.198;2023-04-22T09:24:49;99504.88;;;46.32;8.03
50105;BME280;47690;39.202;-77.198;2023-04-22T09:27:24;99495.09;;;46.31;8.39
50105;BME280;47690;39.202;-77.198;2023-04-22T09:29:55;99500.84;;;46.19;7.99
50105;BME280;47690;39.202;-77.198;2023-04-22T09:32:24;99499.25;;;46.13;7.78
50105;BME280;47690;39.202;-77.198;2023-04-22T09:34:57;99498.97;;;46.19;8.58
50105;BME280;47690;39.202;-77.198;2023-04-22T09:37:27;99482.06;;;46.17;7.89
50105;BME280;47690;39.202;-77.198;2023-04-22T09:40:17;99489.41;;;46.27;8.71
50105;BME280;47690;39.202;-77.198;2023-04-22T09:42:49;99490.50;;;46.26;8.06
50105;BME280;47690;39.202;-77.198;2023-04-22T09:45:36;99485.75;;;46.47;8.09
50105;BME280;47690;39.202;-77.198;2023-04-22T09:48:16;99492.63;;;46.34;8.41
50105;BME280;47690;39.202;-77.198;2023-04-22T09:50:49;99496.50;;;46.23;8.06
50105;BME280;47690;39.202;-77.198;2023-04-22T09:53:20;99486.19;;;46.15;8.59
50105;BME280;47690;39.202;-77.198;2023-04-22T09:55:53;99488.34;;;46.13;8.18
50105;BME280;47690;39.202;-77.198;2023-04-22T09:58:24;99480.06;;;46.44;8.24
50105;BME280;47690;39.202;-77.198;2023-04-22T10:01:05;99485.31;;;46.30;7.84
50105;BME280;47690;39.202;-77.198;2023-04-22T10:03:36;99482.34;;;46.21;8.11
50105;BME280;47690;39.202;-77.198;2023-04-22T10:06:08;99485.63;;;46.18;8.28
50105;BME280;47690;39.202;-77.198;2023-04-22T10:08:39;99489.19;;;46.13;8.55
50105;BME280;47690;39.202;-77.198;2023-04-22T10:11:11;99487.31;;;46.03;8.06
50105;BME280;47690;39.202;-77.198;2023-04-22T10:13:42;99493.03;;;46.07;8.55
50105;BME280;47690;39.202;-77.198;2023-04-22T10:16:21;99488.59;;;46.16;8.14
50105;BME280;47690;39.202;-77.198;2023-04-22T10:18:55;99486.16;;;46.20;8.23
50105;BME280;47690;39.202;-77.198;2023-04-22T10:21:29;99487.56;;;46.07;8.09
50105;BME280;47690;39.202;-77.198;2023-04-22T10:24:00;99493.34;;;45.95;8.16
50105;BME280;47690;39.202;-77.198;2023-04-22T10:26:42;99478.06;;;46.04;8.20
50105;BME280;47690;39.202;-77.198;2023-04-22T10:29:15;99480.78;;;47.54;7.51
50105;BME280;47690;39.202;-77.198;2023-04-22T10:34:49;99487.56;;;46.07;8.42
50105;BME280;47690;39.202;-77.198;2023-04-22T10:37:34;99487.69;;;46.82;8.07
50105;BME280;47690;39.202;-77.198;2023-04-22T10:40:14;99487.66;;;47.22;7.70
50105;BME280;47690;39.202;-77.198;2023-04-22T10:42:52;99492.41;;;46.26;7.94
50105;BME280;47690;39.202;-77.198;2023-04-22T10:45:25;99490.94;;;45.78;8.56
50105;BME280;47690;39.202;-77.198;2023-04-22T10:47:56;99490.16;;;45.67;8.33
50105;BME280;47690;39.202;-77.198;2023-04-22T10:50:31;99483.09;;;45.71;8.32
50105;BME280;47690;39.202;-77.198;2023-04-22T10:53:34;99492.69;;;46.14;8.92
50105;BME280;47690;39.202;-77.198;2023-04-22T10:56:16;99492.09;;;47.12;8.09
50105;BME280;47690;39.202;-77.198;2023-04-22T10:58:49;99495.41;;;46.24;8.84
50105;BME280;47690;39.202;-77.198;2023-04-22T11:01:19;99488.22;;;45.83;8.85
50105;BME280;47690;39.202;-77.198;2023-04-22T11:03:49;99492.56;;;45.84;8.66
50105;BME280;47690;39.202;-77.198;2023-04-22T11:06:20;99491.75;;;45.83;8.80
50105;BME280;47690;39.202;-77.198;2023-04-22T11:08:51;99481.72;;;45.74;8.42
50105;BME280;47690;39.202;-77.198;2023-04-22T11:11:37;99484.09;;;45.91;8.42
50105;BME280;47690;39.202;-77.198;2023-04-22T11:14:08;99482.75;;;45.88;8.95
50105;BME280;47690;39.202;-77.198;2023-04-22T11:16:38;99478.63;;;46.01;8.47
50105;BME280;47690;39.202;-77.198;2023-04-22T11:19:20;99481.81;;;46.24;8.39
50105;BME280;47690;39.202;-77.198;2023-04-22T11:21:49;99482.09;;;46.22;8.95
50105;BME280;47690;39.202;-77.198;2023-04-22T11:24:19;99473.88;;;46.33;8.40
50105;BME280;47690;39.202;-77.198;2023-04-22T11:26:49;99468.44;;;46.28;8.98
50105;BME280;47690;39.202;-77.198;2023-04-22T11:29:24;99472.16;;;46.42;8.33
50105;BME280;47690;39.202;-77.198;2023-04-22T11:31:56;99469.41;;;46.47;8.90
50105;BME280;47690;39.202;-77.198;2023-04-22T11:34:25;99467.47;;;46.53;8.49
50105;BME280;47690;39.202;-77.198;2023-04-22T11:36:56;99468.00;;;46.50;8.90
50105;BME280;47690;39.202;-77.198;2023-04-22T11:39:36;99471.13;;;46.73;8.77
50105;BME280;47690;39.202;-77.198;2023-04-22T11:42:23;99469.72;;;46.81;8.37
50105;BME280;47690;39.202;-77.198;2023-04-22T11:44:53;99459.97;;;46.74;8.88
50105;BME280;47690;39.202;-77.198;2023-04-22T11:47:21;99460.34;;;46.62;8.67
50105;BME280;47690;39.202;-77.198;2023-04-22T11:50:03;99465.16;;;46.71;8.95
50105;BME280;47690;39.202;-77.198;2023-04-22T11:52:53;99463.91;;;46.92;8.85
50105;BME280;47690;39.202;-77.198;2023-04-22T11:55:32;99470.50;;;46.86;8.87
50105;BME280;47690;39.202;-77.198;2023-04-22T12:00:44;99456.59;;;46.88;9.30
50105;BME280;47690;39.202;-77.198;2023-04-22T12:08:25;99455.97;;;46.96;8.75
50105;BME280;47690;39.202;-77.198;2023-04-22T12:10:56;99453.00;;;46.92;8.91
50105;BME280;47690;39.202;-77.198;2023-04-22T12:13:31;99459.78;;;47.00;9.27
50105;BME280;47690;39.202;-77.198;2023-04-22T12:16:13;99461.00;;;47.43;9.06
50105;BME280;47690;39.202;-77.198;2023-04-22T12:18:53;99453.69;;;47.63;9.09
50105;BME280;47690;39.202;-77.198;2023-04-22T12:21:25;99448.59;;;47.56;8.82
50105;BME280;47690;39.202;-77.198;2023-04-22T12:23:59;99451.00;;;47.57;9.04
50105;BME280;47690;39.202;-77.198;2023-04-22T12:26:32;99451.97;;;47.48;8.99
50105;BME280;47690;39.202;-77.198;2023-04-22T12:29:02;99455.31;;;47.39;8.78
50105;BME280;47690;39.202;-77.198;2023-04-22T12:31:36;99458.34;;;47.38;8.77
50105;BME280;47690;39.202;-77.198;2023-04-22T12:34:07;99456.56;;;47.23;8.90
50105;BME280;47690;39.202;-77.198;2023-04-22T12:36:36;99464.81;;;47.17;9.18
50105;BME280;47690;39.202;-77.198;2023-04-22T12:39:06;99444.00;;;47.27;8.92
50105;BME280;47690;39.202;-77.198;2023-04-22T12:41:38;99456.56;;;47.23;9.77
50105;BME280;47690;39.202;-77.198;2023-04-22T12:44:10;99453.03;;;47.22;9.08
50105;BME280;47690;39.202;-77.198;2023-04-22T12:46:42;99467.97;;;47.25;9.49
50105;BME280;47690;39.202;-77.198;2023-04-22T12:49:16;99459.50;;;47.26;9.52
50105;BME280;47690;39.202;-77.198;2023-04-22T12:51:47;99461.03;;;47.13;9.24
50105;BME280;47690;39.202;-77.198;2023-04-22T12:54:18;99468.59;;;47.16;9.50
50105;BME280;47690;39.202;-77.198;2023-04-22T12:56:48;99467.69;;;46.97;9.66
50105;BME280;47690;39.202;-77.198;2023-04-22T12:59:18;99465.28;;;46.90;9.41
50105;BME280;47690;39.202;-77.198;2023-04-22T13:01:48;99467.44;;;46.93;9.28
50105;BME280;47690;39.202;-77.198;2023-04-22T13:04:18;99472.06;;;46.98;9.40
50105;BME280;47690;39.202;-77.198;2023-04-22T13:07:33;99471.28;;;47.76;9.31
50105;BME280;47690;39.202;-77.198;2023-04-22T13:10:07;99474.63;;;47.43;9.34
50105;BME280;47690;39.202;-77.198;2023-04-22T13:12:39;99472.81;;;47.33;9.63
50105;BME280;47690;39.202;-77.198;2023-04-22T13:15:10;99473.88;;;47.37;9.58
50105;BME280;47690;39.202;-77.198;2023-04-22T13:17:41;99477.03;;;47.50;9.53
50105;BME280;47690;39.202;-77.198;2023-04-22T13:20:16;99482.03;;;47.67;9.45
50105;BME280;47690;39.202;-77.198;2023-04-22T13:22:49;99478.91;;;47.79;9.53
50105;BME280;47690;39.202;-77.198;2023-04-22T13:26:04;99486.56;;;48.39;9.27
50105;BME280;47690;39.202;-77.198;2023-04-22T13:28:50;99481.22;;;47.91;9.26
50105;BME280;47690;39.202;-77.198;2023-04-22T13:31:19;99483.50;;;48.03;9.04
50105;BME280;47690;39.202;-77.198;2023-04-22T13:33:49;99491.22;;;47.76;9.67